Leckrone, Pennsylvania
Current Conditions -  °F | °C
As of 4:53 AM on Thursday 23 Oct 2014 (Local Time) from KMGW Reporting Station
Overcast Overcast  
Wind Chill: 46°   Ceiling: 1800
Heat Index: 48°   Visibility: 10mi
Dew Point: 39°   Wind: 5mph
Humidity: 71%   Direction: NA
Pressure: 30.13"   Gusts: NA
Location:  39.86°N, 79.87°W
Report Text: KMGW 230853Z AUTO VRB04KT 10SM BKN018 OVC023 09/04 A3013 RMK AO2 SLP206 T00890039 55002 TSNO
Loading
Personal Weather Stations






























Interactive Weather Map
Tropical Storm Tracking
New forecast layout! Learn more

10-Day Weather Forecast

Advertisements
Track Severe Weather on mobile